createdAt,value
2022-10-17T00:01:30.951Z,11.60
2022-10-17T00:03:57.711Z,11.60
2022-10-17T00:06:24.460Z,11.60
2022-10-17T00:08:51.204Z,11.50
2022-10-17T00:11:20.525Z,11.50
2022-10-17T00:13:49.350Z,11.50
2022-10-17T00:18:50.694Z,11.70
2022-10-17T00:21:19.871Z,11.60
2022-10-17T00:23:47.185Z,11.50
2022-10-17T00:26:14.363Z,11.50
2022-10-17T00:28:41.119Z,11.60
2022-10-17T00:31:08.123Z,11.60
2022-10-17T00:33:35.833Z,11.60
2022-10-17T00:36:06.365Z,11.60
2022-10-17T00:38:33.196Z,11.50
2022-10-17T00:40:59.930Z,11.60
2022-10-17T00:43:26.923Z,11.60
2022-10-17T00:45:53.782Z,11.60
2022-10-17T00:48:23.374Z,11.60
2022-10-17T00:50:50.647Z,11.70
2022-10-17T00:53:18.543Z,11.80
2022-10-17T00:55:49.874Z,11.80
2022-10-17T00:58:17.294Z,11.80
2022-10-17T01:00:46.143Z,11.90
2022-10-17T01:03:12.902Z,12.00
2022-10-17T01:08:28.101Z,12.00
2022-10-17T01:11:15.184Z,12.10
2022-10-17T01:14:29.770Z,12.10
2022-10-17T01:20:11.200Z,12.10
2022-10-17T01:23:04.497Z,12.10
2022-10-17T01:28:50.867Z,12.10
2022-10-17T01:31:22.883Z,12.10
2022-10-17T01:34:14.496Z,12.10
2022-10-17T01:36:49.886Z,12.20
2022-10-17T01:39:45.614Z,12.20
2022-10-17T01:42:30.211Z,12.30
2022-10-17T01:45:23.170Z,12.30
2022-10-17T01:50:44.589Z,12.30
2022-10-17T01:53:18.360Z,12.30
2022-10-17T01:55:46.938Z,12.30
2022-10-17T02:01:14.506Z,12.30
2022-10-17T02:03:43.761Z,12.30
2022-10-17T02:06:10.590Z,12.30
2022-10-17T02:08:48.791Z,12.30
2022-10-17T02:11:17.906Z,12.30
2022-10-17T02:14:05.797Z,12.20
2022-10-17T02:17:10.408Z,12.30
2022-10-17T02:20:02.355Z,12.30
2022-10-17T02:22:41.800Z,12.30
2022-10-17T02:25:35.546Z,12.30
2022-10-17T02:28:08.426Z,12.40
2022-10-17T02:30:42.742Z,12.40
2022-10-17T02:33:12.431Z,12.40
2022-10-17T02:35:44.620Z,12.50
2022-10-17T02:38:13.806Z,12.50
2022-10-17T02:40:41.735Z,12.50
2022-10-17T02:43:08.622Z,12.50
2022-10-17T02:45:37.628Z,12.60
2022-10-17T02:48:12.511Z,12.60
2022-10-17T02:50:51.995Z,12.60
2022-10-17T02:53:30.342Z,12.70
2022-10-17T02:56:02.392Z,12.70
2022-10-17T02:58:33.438Z,12.70
2022-10-17T03:01:00.972Z,12.70
2022-10-17T03:03:30.717Z,12.70
2022-10-17T03:05:57.523Z,12.70
2022-10-17T03:08:24.682Z,12.70
2022-10-17T03:10:51.692Z,12.80
2022-10-17T03:13:18.802Z,12.80
2022-10-17T03:15:45.655Z,12.70
2022-10-17T03:18:12.469Z,12.80
2022-10-17T03:20:39.273Z,12.80
2022-10-17T03:23:06.000Z,12.80
2022-10-17T03:25:32.813Z,12.70
2022-10-17T03:27:59.969Z,12.80
2022-10-17T03:30:27.013Z,12.80
2022-10-17T03:32:53.721Z,12.80
2022-10-17T03:38:07.381Z,12.80
2022-10-17T03:43:20.775Z,12.80
2022-10-17T03:45:47.497Z,12.80
2022-10-17T03:48:14.197Z,12.80
2022-10-17T03:50:40.942Z,12.70
2022-10-17T03:53:07.641Z,12.80
2022-10-17T03:55:34.359Z,12.80
2022-10-17T03:58:01.078Z,12.80
2022-10-17T04:00:27.860Z,12.90
2022-10-17T04:02:54.598Z,12.90
2022-10-17T04:05:21.399Z,13.10
2022-10-17T04:07:48.232Z,13.10
2022-10-17T04:10:15.016Z,13.10
2022-10-17T04:12:41.847Z,13.20
2022-10-17T04:15:09.302Z,13.20
2022-10-17T04:17:38.195Z,13.20
2022-10-17T04:20:05.587Z,13.20
2022-10-17T04:22:32.400Z,13.20
2022-10-17T04:24:59.241Z,13.30
2022-10-17T04:27:26.098Z,13.30
2022-10-17T04:29:52.855Z,13.30
2022-10-17T04:32:19.576Z,13.30
2022-10-17T04:34:49.140Z,13.20
2022-10-17T04:37:16.042Z,13.30
2022-10-17T04:39:42.749Z,13.20
2022-10-17T04:42:09.476Z,13.20
2022-10-17T04:44:36.198Z,13.20
2022-10-17T04:49:49.626Z,13.20
2022-10-17T04:52:16.345Z,13.10
2022-10-17T04:54:43.064Z,13.10
2022-10-17T04:57:10.219Z,13.10
2022-10-17T04:59:37.009Z,13.10
2022-10-17T05:02:03.821Z,13.00
2022-10-17T05:04:30.551Z,13.00
2022-10-17T05:06:57.311Z,12.90
2022-10-17T05:09:24.111Z,12.90
2022-10-17T05:11:50.891Z,12.80
2022-10-17T05:14:17.648Z,12.90
2022-10-17T05:16:44.399Z,12.80
2022-10-17T05:19:12.000Z,12.60
2022-10-17T05:21:38.940Z,12.70
2022-10-17T05:24:07.526Z,12.70
2022-10-17T05:26:34.637Z,12.70
2022-10-17T05:29:02.553Z,12.70
2022-10-17T05:31:30.375Z,12.60
2022-10-17T05:34:01.010Z,12.60
2022-10-17T05:36:27.773Z,12.60
2022-10-17T05:38:54.504Z,12.50
2022-10-17T05:41:21.750Z,12.50
2022-10-17T05:43:48.664Z,12.60
2022-10-17T05:46:15.421Z,12.50
2022-10-17T05:48:42.330Z,12.50
2022-10-17T05:51:10.136Z,12.50
2022-10-17T05:53:39.228Z,12.50
2022-10-17T05:56:08.023Z,12.60
2022-10-17T05:58:52.369Z,12.70
2022-10-17T06:01:20.998Z,12.60
2022-10-17T06:03:47.724Z,12.70
2022-10-17T06:06:15.882Z,12.70
2022-10-17T06:11:10.586Z,12.80
2022-10-17T06:13:38.498Z,12.80
2022-10-17T06:18:52.513Z,12.90
2022-10-17T06:21:26.714Z,12.90
2022-10-17T06:23:53.660Z,12.90
2022-10-17T06:26:20.442Z,12.80
2022-10-17T06:28:47.220Z,12.90
2022-10-17T06:31:16.310Z,12.90
2022-10-17T06:33:43.494Z,12.80
2022-10-17T06:36:13.391Z,12.90
2022-10-17T06:38:40.185Z,12.90
2022-10-17T06:41:10.933Z,12.90
2022-10-17T06:43:38.391Z,13.00
2022-10-17T06:46:05.805Z,13.00
2022-10-17T06:48:33.297Z,13.10
2022-10-17T06:51:01.603Z,13.10
2022-10-17T06:53:33.134Z,13.10
2022-10-17T06:56:00.918Z,13.10
2022-10-17T06:58:28.917Z,13.30
2022-10-17T07:03:53.796Z,13.40
2022-10-17T07:06:21.264Z,13.50
2022-10-17T07:08:47.971Z,13.60
2022-10-17T07:11:19.797Z,13.60
2022-10-17T07:13:46.966Z,13.70
2022-10-17T07:16:14.845Z,13.80
2022-10-17T07:18:41.753Z,14.00
2022-10-17T07:21:09.058Z,15.50
2022-10-17T07:23:36.852Z,16.80
2022-10-17T07:26:06.547Z,17.40
2022-10-17T07:28:38.326Z,17.60
2022-10-17T07:34:00.490Z,18.50
2022-10-17T07:39:13.950Z,17.70
2022-10-17T07:41:40.659Z,17.70
2022-10-17T07:44:07.381Z,17.50
2022-10-17T07:46:34.246Z,17.90
2022-10-17T07:49:01.002Z,18.30
2022-10-17T07:51:27.729Z,18.80
2022-10-17T07:53:54.473Z,19.40
2022-10-17T07:56:21.276Z,20.10
2022-10-17T07:58:48.024Z,20.50
2022-10-17T08:01:15.718Z,20.00
2022-10-17T08:03:44.806Z,20.90
2022-10-17T08:06:12.417Z,20.10
2022-10-17T08:11:25.858Z,20.70
2022-10-17T08:16:42.974Z,21.30
2022-10-17T08:21:56.590Z,21.40
2022-10-17T08:27:10.011Z,21.80
2022-10-17T08:29:37.513Z,22.30
2022-10-17T08:32:07.629Z,23.40
2022-10-17T08:34:35.724Z,23.10
2022-10-17T08:37:02.525Z,22.90
2022-10-17T08:39:29.285Z,23.00
2022-10-17T08:47:59.570Z,23.50
2022-10-17T08:50:32.163Z,20.70
2022-10-17T08:53:10.785Z,20.60
2022-10-17T08:55:44.402Z,22.50
2022-10-17T08:58:28.913Z,23.10
2022-10-17T09:01:20.013Z,23.70
2022-10-17T09:03:52.309Z,23.40
2022-10-17T09:09:30.496Z,21.60
2022-10-17T09:12:05.102Z,20.60
2022-10-17T09:14:47.224Z,20.10
2022-10-17T09:17:33.162Z,20.10
2022-10-17T09:20:03.006Z,20.40
2022-10-17T09:22:37.655Z,20.70
2022-10-17T09:25:10.027Z,20.90
2022-10-17T09:27:51.501Z,20.20
2022-10-17T09:30:46.485Z,20.10
2022-10-17T09:33:55.222Z,20.40
2022-10-17T09:36:16.458Z,20.30
2022-10-17T09:38:52.067Z,20.20
2022-10-17T09:44:22.178Z,20.40
2022-10-17T09:49:57.553Z,20.80
2022-10-17T09:52:42.476Z,21.70
2022-10-17T09:55:32.262Z,21.20
2022-10-17T09:58:01.671Z,21.30
2022-10-17T10:00:33.581Z,21.60
2022-10-17T10:03:15.630Z,21.40
2022-10-17T10:05:44.037Z,21.00
2022-10-17T10:08:16.347Z,21.50
2022-10-17T10:10:45.123Z,21.90
2022-10-17T10:13:15.015Z,21.50
2022-10-17T10:15:47.033Z,21.20
2022-10-17T10:18:35.561Z,21.30
2022-10-17T10:24:12.642Z,21.70
2022-10-17T10:26:41.232Z,21.80
2022-10-17T10:29:28.764Z,21.90
2022-10-17T10:31:56.042Z,22.20
2022-10-17T10:34:26.401Z,23.00
2022-10-17T10:37:05.398Z,22.90
2022-10-17T10:39:43.663Z,22.90
2022-10-17T10:42:21.642Z,23.40
2022-10-17T10:44:49.737Z,22.70
2022-10-17T10:47:19.260Z,22.80
2022-10-17T10:49:46.485Z,22.70
2022-10-17T10:52:29.777Z,22.70
2022-10-17T10:58:20.629Z,22.30
2022-10-17T11:00:48.041Z,22.20
2022-10-17T11:03:36.017Z,22.20
2022-10-17T11:06:13.789Z,22.40
2022-10-17T11:08:49.687Z,22.60
2022-10-17T11:11:36.617Z,22.40
2022-10-17T11:14:15.294Z,22.40
2022-10-17T11:16:52.642Z,21.90
2022-10-17T11:19:33.970Z,21.70
2022-10-17T11:22:26.640Z,21.90
2022-10-17T11:25:05.057Z,21.70
2022-10-17T11:27:33.945Z,21.70
2022-10-17T11:30:01.406Z,22.40
2022-10-17T11:32:46.156Z,22.60
2022-10-17T11:35:26.411Z,22.90
2022-10-17T11:38:25.995Z,22.80
2022-10-17T11:44:20.515Z,22.40
2022-10-17T11:46:54.540Z,22.20
2022-10-17T11:52:51.360Z,21.90
2022-10-17T11:55:26.995Z,21.30
2022-10-17T11:58:12.328Z,21.10
2022-10-17T12:00:49.092Z,21.00
2022-10-17T12:03:38.459Z,20.80
2022-10-17T12:06:39.403Z,20.70
2022-10-17T12:09:18.598Z,20.60
2022-10-17T12:11:58.593Z,20.70
2022-10-17T12:14:36.262Z,20.70
2022-10-17T12:17:04.341Z,20.90
2022-10-17T12:19:33.349Z,21.20
2022-10-17T12:22:04.402Z,21.40
2022-10-17T12:24:41.184Z,21.40
2022-10-17T12:27:34.271Z,21.30
2022-10-17T12:30:04.925Z,21.10
2022-10-17T12:32:46.839Z,21.10
2022-10-17T12:35:24.025Z,21.00
2022-10-17T12:37:57.334Z,20.90
2022-10-17T12:43:30.470Z,20.80
2022-10-17T12:48:44.536Z,20.60
2022-10-17T12:51:34.914Z,20.60
2022-10-17T12:54:13.350Z,20.60
2022-10-17T12:56:47.255Z,20.50
2022-10-17T12:59:25.871Z,20.40
2022-10-17T13:02:01.812Z,20.40
2022-10-17T13:04:30.343Z,20.30
2022-10-17T13:09:29.755Z,20.20
2022-10-17T13:11:59.789Z,20.20
2022-10-17T13:14:27.525Z,20.10
2022-10-17T13:16:57.162Z,20.20
2022-10-17T13:19:30.580Z,20.10
2022-10-17T13:22:06.091Z,20.10
2022-10-17T13:24:39.785Z,20.20
2022-10-17T13:27:22.340Z,20.20
2022-10-17T13:29:49.163Z,20.20
2022-10-17T13:32:16.273Z,20.20
2022-10-17T13:34:43.175Z,20.20
2022-10-17T13:40:11.304Z,20.10
2022-10-17T13:42:47.858Z,20.10
2022-10-17T13:45:23.829Z,20.10
2022-10-17T13:50:45.232Z,20.00
2022-10-17T13:53:20.098Z,20.10
2022-10-17T13:56:09.378Z,20.00
2022-10-17T14:01:13.425Z,19.90
2022-10-17T14:04:00.959Z,20.00
2022-10-17T14:09:25.174Z,20.00
2022-10-17T14:12:09.713Z,20.10
2022-10-17T14:14:58.318Z,20.00
2022-10-17T14:23:35.182Z,19.90
2022-10-17T14:26:17.041Z,19.90
2022-10-17T14:31:20.133Z,19.80
2022-10-17T14:33:50.839Z,19.80
2022-10-17T14:36:19.348Z,19.70
2022-10-17T14:38:48.814Z,19.70
2022-10-17T14:41:41.817Z,19.70
2022-10-17T14:44:27.058Z,19.70
2022-10-17T14:47:05.958Z,19.70
2022-10-17T14:49:39.128Z,19.70
2022-10-17T14:52:18.374Z,19.70
2022-10-17T14:54:47.849Z,19.70
2022-10-17T14:57:33.468Z,19.70
2022-10-17T15:02:48.229Z,19.50
2022-10-17T15:08:02.360Z,19.40
2022-10-17T15:13:28.488Z,19.40
2022-10-17T15:18:42.339Z,19.30
2022-10-17T15:21:33.672Z,19.30
2022-10-17T15:26:47.607Z,19.20
2022-10-17T15:32:02.325Z,19.10
2022-10-17T15:34:29.093Z,19.10
2022-10-17T15:36:55.786Z,19.00
2022-10-17T15:39:22.663Z,19.00
2022-10-17T15:41:49.455Z,18.90
2022-10-17T15:44:17.121Z,18.80
2022-10-17T15:46:44.038Z,18.80
2022-10-17T15:49:13.690Z,18.70
2022-10-17T15:51:40.806Z,18.70
2022-10-17T15:54:07.618Z,18.70
2022-10-17T15:56:38.164Z,18.60
2022-10-17T15:59:07.971Z,18.50
2022-10-17T16:01:35.067Z,18.50
2022-10-17T16:04:02.167Z,18.50
2022-10-17T16:06:28.892Z,18.50
2022-10-17T16:08:55.694Z,18.50
2022-10-17T16:11:31.470Z,18.40
2022-10-17T16:14:00.799Z,18.40
2022-10-17T16:16:27.716Z,18.50
2022-10-17T16:18:54.625Z,18.40
2022-10-17T16:21:25.864Z,18.40
2022-10-17T16:23:52.991Z,18.50
2022-10-17T16:28:46.909Z,18.30
2022-10-17T16:31:23.743Z,18.20
2022-10-17T16:33:52.718Z,18.20
2022-10-17T16:36:20.092Z,18.10
2022-10-17T16:38:47.890Z,18.10
2022-10-17T16:41:24.417Z,18.00
2022-10-17T16:43:52.974Z,18.00
2022-10-17T16:49:07.665Z,17.90
2022-10-17T16:51:35.297Z,17.80
2022-10-17T16:54:02.609Z,17.70
2022-10-17T16:56:29.326Z,17.70
2022-10-17T16:58:56.302Z,17.70
2022-10-17T17:01:25.154Z,17.60
2022-10-17T17:03:53.337Z,17.60
2022-10-17T17:06:25.752Z,17.50
2022-10-17T17:08:53.590Z,17.60
2022-10-17T17:11:23.637Z,17.60
2022-10-17T17:13:50.872Z,17.50
2022-10-17T17:16:20.364Z,17.40
2022-10-17T17:18:47.706Z,17.40
2022-10-17T17:21:14.936Z,17.40
2022-10-17T17:23:43.194Z,17.30
2022-10-17T17:26:21.117Z,17.30
2022-10-17T17:31:20.478Z,17.20
2022-10-17T17:33:47.297Z,17.20
2022-10-17T17:36:20.491Z,17.20
2022-10-17T17:38:48.121Z,17.10
2022-10-17T17:44:10.167Z,17.10
2022-10-17T17:49:25.880Z,17.00
2022-10-17T17:51:52.666Z,17.00
2022-10-17T17:54:19.402Z,16.90
2022-10-17T17:56:46.199Z,17.00
2022-10-17T17:59:13.397Z,17.00
2022-10-17T18:01:40.360Z,16.90
2022-10-17T18:04:08.968Z,16.90
2022-10-17T18:09:05.800Z,16.90
2022-10-17T18:11:33.143Z,16.90
2022-10-17T18:16:30.904Z,16.90
2022-10-17T18:19:02.610Z,16.80
2022-10-17T18:21:33.005Z,16.80
2022-10-17T18:23:59.740Z,16.80
2022-10-17T18:26:27.208Z,16.80
2022-10-17T18:28:54.100Z,16.80
2022-10-17T18:31:23.115Z,16.70
2022-10-17T18:33:56.148Z,16.70
2022-10-17T18:36:23.357Z,16.70
2022-10-17T18:38:50.147Z,16.70
2022-10-17T18:41:19.966Z,16.70
2022-10-17T18:43:48.147Z,16.60
2022-10-17T18:46:33.126Z,16.60
2022-10-17T18:48:59.872Z,16.50
2022-10-17T18:51:26.902Z,16.60
2022-10-17T18:53:55.630Z,16.60
2022-10-17T18:56:23.565Z,16.50
2022-10-17T18:58:50.662Z,16.50
2022-10-17T19:01:22.676Z,16.50
2022-10-17T19:03:51.241Z,16.50
2022-10-17T19:06:20.522Z,16.50
2022-10-17T19:11:36.417Z,16.50
2022-10-17T19:16:52.171Z,16.50
2022-10-17T19:19:24.390Z,16.60
2022-10-17T19:21:52.038Z,16.50
2022-10-17T19:24:24.769Z,16.40
2022-10-17T19:26:54.063Z,16.50
2022-10-17T19:29:22.518Z,16.50
2022-10-17T19:31:49.448Z,16.50
2022-10-17T19:34:17.010Z,16.40
2022-10-17T19:36:44.108Z,16.40
2022-10-17T19:39:16.208Z,16.40
2022-10-17T19:41:44.723Z,16.40
2022-10-17T19:44:11.527Z,16.40
2022-10-17T19:46:39.119Z,16.30
2022-10-17T19:49:07.016Z,16.40
2022-10-17T19:51:34.075Z,16.30
2022-10-17T19:54:01.271Z,16.30
2022-10-17T19:56:30.725Z,16.40
2022-10-17T19:58:58.195Z,16.40
2022-10-17T20:04:14.427Z,16.30
2022-10-17T20:06:41.501Z,16.40
2022-10-17T20:09:11.136Z,16.40
2022-10-17T20:11:40.983Z,16.40
2022-10-17T20:14:07.824Z,16.40
2022-10-17T20:16:36.364Z,16.40
2022-10-17T20:19:09.137Z,16.30
2022-10-17T20:21:36.727Z,16.40
2022-10-17T20:24:05.861Z,16.40
2022-10-17T20:26:38.272Z,16.40
2022-10-17T20:29:17.437Z,16.40
2022-10-17T20:31:45.816Z,16.40
2022-10-17T20:34:14.761Z,16.40
2022-10-17T20:36:41.898Z,16.40
2022-10-17T20:39:11.320Z,16.50
2022-10-17T20:41:38.072Z,16.40
2022-10-17T20:44:04.941Z,16.40
2022-10-17T20:46:44.641Z,16.40
2022-10-17T20:49:18.071Z,16.40
2022-10-17T20:51:45.444Z,16.40
2022-10-17T20:54:12.539Z,16.40
2022-10-17T20:56:39.470Z,16.40
2022-10-17T20:59:10.978Z,16.40
2022-10-17T21:01:37.829Z,16.40
2022-10-17T21:06:51.702Z,16.30
2022-10-17T21:09:18.679Z,16.40
2022-10-17T21:14:32.172Z,16.40
2022-10-17T21:17:04.534Z,16.30
2022-10-17T21:19:31.874Z,16.30
2022-10-17T21:21:58.634Z,16.30
2022-10-17T21:24:25.386Z,16.30
2022-10-17T21:26:52.121Z,16.30
2022-10-17T21:29:18.849Z,16.30
2022-10-17T21:31:45.553Z,16.30
2022-10-17T21:34:17.896Z,16.30
2022-10-17T21:36:45.183Z,16.30
2022-10-17T21:39:13.306Z,16.30
2022-10-17T21:41:40.958Z,16.30
2022-10-17T21:44:12.868Z,16.30
2022-10-17T21:46:39.888Z,16.30
2022-10-17T21:49:07.106Z,16.30
2022-10-17T21:51:33.948Z,16.30
2022-10-17T21:54:00.712Z,16.30
2022-10-17T21:56:28.974Z,16.30
2022-10-17T21:58:56.019Z,16.30
2022-10-17T22:01:25.129Z,16.30
2022-10-17T22:03:55.254Z,16.20
2022-10-17T22:06:40.858Z,16.20
2022-10-17T22:09:28.206Z,16.10
2022-10-17T22:11:56.575Z,16.10
2022-10-17T22:14:24.927Z,16.00
2022-10-17T22:16:51.936Z,16.00
2022-10-17T22:22:08.798Z,15.90
2022-10-17T22:27:22.285Z,15.90
2022-10-17T22:32:35.614Z,15.80
2022-10-17T22:35:02.389Z,15.80
2022-10-17T22:37:29.329Z,15.70
2022-10-17T22:39:56.241Z,15.60
2022-10-17T22:42:23.080Z,15.60
2022-10-17T22:44:49.791Z,15.50
2022-10-17T22:47:16.502Z,15.50
2022-10-17T22:49:43.218Z,15.50
2022-10-17T22:52:09.921Z,15.50
2022-10-17T22:54:36.660Z,15.30
2022-10-17T22:57:03.365Z,15.40
2022-10-17T22:59:30.105Z,15.30
2022-10-17T23:01:56.850Z,15.30
2022-10-17T23:04:23.585Z,15.30
2022-10-17T23:06:50.339Z,15.20
2022-10-17T23:09:17.089Z,15.20
2022-10-17T23:11:43.825Z,15.10
2022-10-17T23:14:10.546Z,15.10
2022-10-17T23:16:37.281Z,15.10
2022-10-17T23:19:04.089Z,15.00
2022-10-17T23:21:30.890Z,15.10
2022-10-17T23:23:57.618Z,15.00
2022-10-17T23:26:24.351Z,15.00
2022-10-17T23:28:54.547Z,14.90
2022-10-17T23:31:22.214Z,14.90
2022-10-17T23:33:49.821Z,14.80
2022-10-17T23:36:18.663Z,14.90
2022-10-17T23:38:47.012Z,14.80
2022-10-17T23:41:14.307Z,14.80
2022-10-17T23:43:41.037Z,14.80
2022-10-17T23:46:08.212Z,14.70
2022-10-17T23:48:35.170Z,14.70
2022-10-17T23:53:48.552Z,14.80
2022-10-17T23:59:02.148Z,14.70
